createdAt,value
2023-03-16T00:00:41.394Z,0.47
2023-03-16T00:03:07.743Z,0.41
2023-03-16T00:05:33.981Z,0.39
2023-03-16T00:08:00.188Z,0.36
2023-03-16T00:10:26.739Z,0.34
2023-03-16T00:12:53.502Z,0.37
2023-03-16T00:15:19.900Z,0.38
2023-03-16T00:17:46.120Z,0.34
2023-03-16T00:20:12.376Z,0.33
2023-03-16T00:22:38.611Z,0.26
2023-03-16T00:25:05.090Z,0.25
2023-03-16T00:27:31.589Z,0.20
2023-03-16T00:29:57.827Z,0.15
2023-03-16T00:32:24.841Z,0.12
2023-03-16T00:34:51.180Z,0.12
2023-03-16T00:37:17.614Z,0.10
2023-03-16T00:39:44.288Z,0.10
2023-03-16T00:42:10.570Z,0.07
2023-03-16T00:44:36.869Z,0.08
2023-03-16T00:47:03.608Z,0.04
2023-03-16T00:49:29.900Z,0.06
2023-03-16T00:51:56.134Z,0.03
2023-03-16T00:54:25.394Z,0.01
2023-03-16T00:56:51.600Z,-0.02
2023-03-16T00:59:19.876Z,-0.03
2023-03-16T01:01:46.237Z,-0.08
2023-03-16T01:04:12.645Z,-0.08
2023-03-16T01:06:39.965Z,-0.13
2023-03-16T01:09:06.234Z,-0.15
2023-03-16T01:11:32.481Z,-0.13
2023-03-16T01:13:58.855Z,-0.13
2023-03-16T01:16:25.130Z,-0.16
2023-03-16T01:18:51.381Z,-0.22
2023-03-16T01:21:17.675Z,-0.21
2023-03-16T01:23:43.937Z,-0.19
2023-03-16T01:26:10.212Z,-0.19
2023-03-16T01:28:36.407Z,-0.20
2023-03-16T01:31:06.588Z,-0.20
2023-03-16T01:33:32.908Z,-0.21
2023-03-16T01:36:01.239Z,-0.20
2023-03-16T01:38:27.584Z,-0.19
2023-03-16T01:40:54.001Z,-0.19
2023-03-16T01:43:20.828Z,-0.22
2023-03-16T01:46:05.411Z,-0.23
2023-03-16T01:48:32.862Z,-0.28
2023-03-16T01:50:59.049Z,-0.32
2023-03-16T01:53:25.276Z,-0.31
2023-03-16T01:55:51.470Z,-0.34
2023-03-16T01:58:17.668Z,-0.35
2023-03-16T02:00:43.868Z,-0.30
2023-03-16T02:03:14.567Z,-0.34
2023-03-16T02:05:42.056Z,-0.35
2023-03-16T02:08:08.356Z,-0.35
2023-03-16T02:10:34.567Z,-0.35
2023-03-16T02:13:00.790Z,-0.39
2023-03-16T02:15:27.127Z,-0.46
2023-03-16T02:17:53.385Z,-0.39
2023-03-16T02:20:37.948Z,-0.37
2023-03-16T02:23:04.616Z,-0.31
2023-03-16T02:25:41.601Z,-0.21
2023-03-16T02:28:15.249Z,-0.22
2023-03-16T02:30:41.561Z,-0.25
2023-03-16T02:33:07.881Z,-0.29
2023-03-16T02:35:34.154Z,-0.32
2023-03-16T02:38:00.415Z,-0.31
2023-03-16T02:40:28.434Z,-0.28
2023-03-16T02:43:05.457Z,-0.27
2023-03-16T02:45:36.469Z,-0.31
2023-03-16T02:48:02.910Z,-0.28
2023-03-16T02:50:29.451Z,-0.27
2023-03-16T02:52:55.842Z,-0.30
2023-03-16T02:55:22.044Z,-0.32
2023-03-16T02:57:48.257Z,-0.31
2023-03-16T03:00:14.549Z,-0.32
2023-03-16T03:02:40.764Z,-0.37
2023-03-16T03:05:07.040Z,-0.35
2023-03-16T03:07:33.248Z,-0.35
2023-03-16T03:09:59.444Z,-0.35
2023-03-16T03:12:25.652Z,-0.37
2023-03-16T03:14:51.872Z,-0.35
2023-03-16T03:17:18.063Z,-0.38
2023-03-16T03:19:44.276Z,-0.39
2023-03-16T03:22:10.511Z,-0.43
2023-03-16T03:24:36.744Z,-0.48
2023-03-16T03:27:02.948Z,-0.50
2023-03-16T03:29:29.172Z,-0.50
2023-03-16T03:31:55.446Z,-0.53
2023-03-16T03:34:21.713Z,-0.56
2023-03-16T03:36:47.909Z,-0.61
2023-03-16T03:39:14.115Z,-0.64
2023-03-16T03:41:40.320Z,-0.65
2023-03-16T03:44:06.640Z,-0.64
2023-03-16T03:46:32.949Z,-0.62
2023-03-16T03:48:59.272Z,-0.65
2023-03-16T03:51:25.476Z,-0.66
2023-03-16T03:53:51.699Z,-0.68
2023-03-16T03:56:17.924Z,-0.65
2023-03-16T03:58:44.151Z,-0.63
2023-03-16T04:01:10.378Z,-0.64
2023-03-16T04:03:36.604Z,-0.63
2023-03-16T04:06:02.812Z,-0.67
2023-03-16T04:08:29.066Z,-0.63
2023-03-16T04:10:55.296Z,-0.60
2023-03-16T04:13:21.504Z,-0.53
2023-03-16T04:15:47.752Z,-0.53
2023-03-16T04:18:13.967Z,-0.40
2023-03-16T04:20:40.198Z,-0.36
2023-03-16T04:23:08.129Z,-0.53
2023-03-16T04:25:34.555Z,-0.55
2023-03-16T04:28:00.754Z,-0.75
2023-03-16T04:30:27.152Z,-0.75
2023-03-16T04:32:53.625Z,-0.83
2023-03-16T04:35:19.870Z,-0.91
2023-03-16T04:37:46.098Z,-0.53
2023-03-16T04:40:12.500Z,-0.50
2023-03-16T04:42:38.724Z,-0.40
2023-03-16T04:45:05.021Z,-0.37
2023-03-16T04:47:31.241Z,-0.32
2023-03-16T04:49:57.456Z,-0.42
2023-03-16T04:52:23.672Z,-0.41
2023-03-16T04:54:49.885Z,-0.35
2023-03-16T04:57:16.085Z,-0.30
2023-03-16T04:59:42.335Z,-0.25
2023-03-16T05:02:08.536Z,-0.24
2023-03-16T05:04:34.768Z,-0.51
2023-03-16T05:07:00.990Z,-0.77
2023-03-16T05:09:27.225Z,-0.88
2023-03-16T05:11:53.454Z,-0.83
2023-03-16T05:14:20.076Z,-0.66
2023-03-16T05:16:46.292Z,-0.59
2023-03-16T05:19:12.520Z,-0.52
2023-03-16T05:21:38.808Z,-0.49
2023-03-16T05:24:05.419Z,-0.55
2023-03-16T05:26:31.628Z,-0.48
2023-03-16T05:28:57.827Z,-0.42
2023-03-16T05:31:24.155Z,-0.32
2023-03-16T05:33:50.375Z,-0.20
2023-03-16T05:36:16.611Z,-0.25
2023-03-16T05:38:42.830Z,-0.20
2023-03-16T05:41:09.052Z,-0.10
2023-03-16T05:43:35.391Z,-0.03
2023-03-16T05:46:01.604Z,-0.02
2023-03-16T05:48:27.824Z,0.10
2023-03-16T05:50:54.043Z,0.10
2023-03-16T05:53:20.326Z,0.26
2023-03-16T05:55:51.451Z,0.69
2023-03-16T05:58:17.664Z,0.63
2023-03-16T06:00:43.888Z,0.69
2023-03-16T06:03:10.178Z,1.02
2023-03-16T06:05:36.467Z,0.86
2023-03-16T06:08:02.680Z,1.12
2023-03-16T06:10:29.136Z,1.39
2023-03-16T06:12:55.580Z,1.50
2023-03-16T06:15:21.803Z,1.42
2023-03-16T06:17:48.009Z,1.33
2023-03-16T06:20:14.218Z,1.39
2023-03-16T06:22:40.805Z,1.32
2023-03-16T06:25:07.164Z,1.35
2023-03-16T06:27:33.392Z,1.28
2023-03-16T06:29:59.656Z,1.17
2023-03-16T06:32:26.028Z,1.12
2023-03-16T06:34:52.382Z,1.03
2023-03-16T06:37:18.590Z,1.09
2023-03-16T06:39:44.793Z,1.12
2023-03-16T06:42:11.008Z,1.17
2023-03-16T06:44:37.219Z,1.35
2023-03-16T06:47:03.506Z,1.69
2023-03-16T06:49:29.718Z,1.86
2023-03-16T06:51:55.936Z,1.95
2023-03-16T06:54:22.140Z,2.12
2023-03-16T06:56:48.376Z,2.37
2023-03-16T06:59:14.603Z,2.71
2023-03-16T07:01:40.813Z,3.13
2023-03-16T07:04:07.021Z,3.65
2023-03-16T07:06:33.273Z,4.42
2023-03-16T07:08:59.561Z,4.60
2023-03-16T07:11:25.790Z,5.16
2023-03-16T07:13:52.201Z,5.13
2023-03-16T07:16:18.478Z,5.35
2023-03-16T07:18:44.717Z,5.36
2023-03-16T07:21:11.171Z,5.66
2023-03-16T07:23:37.408Z,5.88
2023-03-16T07:26:03.609Z,5.50
2023-03-16T07:28:29.870Z,5.55
2023-03-16T07:33:23.756Z,5.41
2023-03-16T07:35:50.020Z,5.73
2023-03-16T07:38:16.291Z,5.59
2023-03-16T07:40:42.539Z,5.54
2023-03-16T07:43:08.786Z,5.67
2023-03-16T07:45:35.003Z,6.07
2023-03-16T07:48:01.224Z,6.49
2023-03-16T07:50:27.682Z,6.64
2023-03-16T07:52:54.066Z,6.95
2023-03-16T07:55:20.302Z,7.26
2023-03-16T07:57:46.537Z,7.29
2023-03-16T08:00:12.964Z,7.11
2023-03-16T08:02:39.234Z,7.25
2023-03-16T08:05:05.608Z,6.87
2023-03-16T08:07:32.162Z,6.97
2023-03-16T08:09:58.417Z,6.93
2023-03-16T08:12:24.660Z,6.96
2023-03-16T08:14:50.905Z,6.81
2023-03-16T08:17:17.134Z,6.92
2023-03-16T08:19:43.376Z,6.89
2023-03-16T08:22:09.601Z,7.28
2023-03-16T08:24:35.928Z,7.04
2023-03-16T08:27:02.206Z,6.43
2023-03-16T08:29:28.436Z,7.11
2023-03-16T08:31:54.714Z,6.51
2023-03-16T08:34:20.964Z,6.59
2023-03-16T08:36:47.194Z,6.48
2023-03-16T08:39:13.533Z,6.42
2023-03-16T08:41:39.767Z,6.77
2023-03-16T08:44:05.996Z,6.45
2023-03-16T08:46:32.325Z,6.71
2023-03-16T08:48:58.597Z,6.59
2023-03-16T08:51:24.832Z,6.68
2023-03-16T08:53:51.072Z,6.98
2023-03-16T08:56:17.315Z,7.42
2023-03-16T08:58:43.557Z,7.34
2023-03-16T09:01:09.806Z,7.56
2023-03-16T09:03:36.035Z,7.00
2023-03-16T09:06:02.698Z,7.56
2023-03-16T09:08:28.955Z,7.68
2023-03-16T09:11:08.726Z,7.79
2023-03-16T09:13:34.987Z,7.65
2023-03-16T09:16:01.219Z,7.60
2023-03-16T09:18:27.468Z,7.63
2023-03-16T09:21:03.747Z,7.58
2023-03-16T09:23:30.373Z,7.75
2023-03-16T09:26:00.571Z,7.77
2023-03-16T09:28:27.317Z,7.84
2023-03-16T09:30:54.137Z,8.36
2023-03-16T09:33:20.778Z,8.28
2023-03-16T09:35:47.084Z,8.40
2023-03-16T09:38:13.391Z,8.29
2023-03-16T09:40:39.617Z,8.29
2023-03-16T09:43:24.598Z,8.22
2023-03-16T09:45:59.790Z,8.46
2023-03-16T09:48:26.799Z,8.50
2023-03-16T09:50:53.702Z,8.64
2023-03-16T09:53:27.837Z,8.56
2023-03-16T09:55:55.339Z,8.52
2023-03-16T09:58:21.769Z,8.64
2023-03-16T10:01:08.269Z,8.79
2023-03-16T10:03:43.532Z,9.00
2023-03-16T10:06:10.092Z,9.28
2023-03-16T10:08:37.358Z,9.14
2023-03-16T10:11:12.046Z,8.86
2023-03-16T10:13:52.435Z,9.24
2023-03-16T10:16:41.962Z,9.22
2023-03-16T10:19:28.449Z,9.23
2023-03-16T10:21:54.658Z,9.35
2023-03-16T10:24:33.020Z,9.14
2023-03-16T10:27:00.173Z,9.50
2023-03-16T10:29:27.759Z,9.43
2023-03-16T10:31:54.737Z,9.35
2023-03-16T10:34:20.959Z,9.31
2023-03-16T10:36:47.168Z,9.38
2023-03-16T10:39:13.890Z,9.57
2023-03-16T10:41:40.757Z,9.54
2023-03-16T10:44:11.360Z,9.70
2023-03-16T10:46:38.870Z,9.42
2023-03-16T10:49:05.220Z,9.35
2023-03-16T10:51:34.613Z,9.35
2023-03-16T10:54:08.442Z,9.28
2023-03-16T10:56:34.672Z,8.92
2023-03-16T10:59:00.884Z,8.75
2023-03-16T11:01:27.789Z,8.95
2023-03-16T11:03:55.060Z,9.11
2023-03-16T11:06:25.668Z,9.13
2023-03-16T11:08:52.946Z,9.08
2023-03-16T11:11:31.486Z,8.97
2023-03-16T11:13:58.421Z,9.16
2023-03-16T11:16:24.636Z,8.84
2023-03-16T11:18:52.337Z,9.40
2023-03-16T11:21:31.119Z,9.57
2023-03-16T11:23:57.336Z,9.51
2023-03-16T11:26:33.461Z,9.44
2023-03-16T11:29:00.913Z,9.35
2023-03-16T11:31:33.270Z,9.22
2023-03-16T11:33:59.501Z,8.98
2023-03-16T11:36:35.638Z,9.08
2023-03-16T11:39:01.839Z,9.03
2023-03-16T11:41:28.005Z,9.02
2023-03-16T11:43:57.086Z,9.09
2023-03-16T11:46:24.378Z,9.18
2023-03-16T11:48:57.848Z,9.18
2023-03-16T11:51:28.639Z,9.19
2023-03-16T11:54:03.653Z,9.46
2023-03-16T11:56:32.933Z,9.44
2023-03-16T11:59:19.392Z,9.29
2023-03-16T12:02:01.078Z,9.15
2023-03-16T12:04:49.077Z,9.10
2023-03-16T12:07:24.307Z,9.44
2023-03-16T12:09:56.591Z,9.40
2023-03-16T12:12:22.752Z,9.31
2023-03-16T12:15:01.123Z,9.11
2023-03-16T12:17:27.760Z,9.10
2023-03-16T12:20:00.239Z,9.16
2023-03-16T12:22:27.859Z,9.14
2023-03-16T12:24:54.067Z,8.82
2023-03-16T12:27:21.462Z,8.94
2023-03-16T12:29:59.939Z,9.32
2023-03-16T12:32:32.238Z,9.48
2023-03-16T12:35:19.026Z,9.72
2023-03-16T12:37:48.643Z,9.71
2023-03-16T12:40:21.552Z,9.68
2023-03-16T12:42:57.566Z,9.44
2023-03-16T12:45:44.024Z,9.12
2023-03-16T12:48:10.267Z,8.86
2023-03-16T12:50:46.261Z,8.61
2023-03-16T12:53:24.483Z,8.86
2023-03-16T12:55:50.682Z,8.94
2023-03-16T12:58:16.887Z,9.19
2023-03-16T13:00:43.160Z,8.99
2023-03-16T13:03:16.295Z,8.85
2023-03-16T13:05:46.498Z,8.84
2023-03-16T13:08:16.417Z,8.53
2023-03-16T13:10:42.896Z,8.58
2023-03-16T13:13:09.915Z,8.51
2023-03-16T13:15:36.126Z,8.55
2023-03-16T13:18:03.663Z,8.75
2023-03-16T13:20:31.974Z,8.74
2023-03-16T13:23:09.052Z,8.81
2023-03-16T13:25:39.229Z,8.84
2023-03-16T13:28:05.596Z,8.87
2023-03-16T13:30:32.539Z,8.96
2023-03-16T13:33:05.908Z,8.83
2023-03-16T13:35:32.186Z,8.96
2023-03-16T13:38:04.805Z,9.01
2023-03-16T13:40:31.467Z,8.89
2023-03-16T13:42:57.879Z,8.96
2023-03-16T13:45:33.859Z,8.92
2023-03-16T13:48:00.221Z,8.96
2023-03-16T13:50:26.542Z,8.81
2023-03-16T13:52:55.811Z,8.66
2023-03-16T13:55:26.029Z,8.65
2023-03-16T13:57:52.240Z,8.66
2023-03-16T14:00:19.206Z,8.69
2023-03-16T14:02:51.901Z,8.65
2023-03-16T14:05:18.999Z,8.57
2023-03-16T14:07:48.648Z,8.57
2023-03-16T14:10:14.890Z,8.36
2023-03-16T14:12:50.239Z,8.36
2023-03-16T14:15:16.448Z,8.57
2023-03-16T14:17:42.658Z,8.65
2023-03-16T14:20:09.519Z,8.66
2023-03-16T14:22:36.994Z,8.66
2023-03-16T14:25:03.288Z,8.78
2023-03-16T14:27:42.302Z,8.84
2023-03-16T14:30:14.843Z,8.85
2023-03-16T14:32:41.102Z,8.70
2023-03-16T14:35:17.227Z,8.72
2023-03-16T14:37:43.446Z,8.64
2023-03-16T14:40:30.029Z,8.46
2023-03-16T14:42:59.889Z,8.04
2023-03-16T14:45:33.445Z,8.05
2023-03-16T14:48:03.800Z,8.02
2023-03-16T14:50:30.069Z,8.02
2023-03-16T14:52:56.268Z,8.06
2023-03-16T14:55:22.493Z,7.90
2023-03-16T14:57:48.709Z,7.91
2023-03-16T15:00:15.339Z,7.90
2023-03-16T15:02:41.946Z,7.97
2023-03-16T15:05:08.831Z,8.04
2023-03-16T15:07:38.925Z,8.01
2023-03-16T15:10:06.742Z,8.01
2023-03-16T15:12:32.999Z,8.11
2023-03-16T15:14:59.194Z,7.95
2023-03-16T15:17:25.421Z,7.73
2023-03-16T15:19:51.632Z,7.65
2023-03-16T15:22:18.199Z,7.59
2023-03-16T15:24:46.867Z,7.64
2023-03-16T15:27:25.789Z,7.61
2023-03-16T15:29:52.011Z,7.52
2023-03-16T15:32:18.240Z,7.33
2023-03-16T15:34:44.448Z,7.35
2023-03-16T15:37:17.216Z,7.28
2023-03-16T15:39:44.033Z,7.34
2023-03-16T15:42:14.564Z,7.19
2023-03-16T15:44:40.796Z,7.30
2023-03-16T15:47:07.046Z,7.33
2023-03-16T15:49:46.666Z,7.24
2023-03-16T15:52:22.028Z,7.15
2023-03-16T15:54:51.356Z,7.10
2023-03-16T15:57:17.643Z,7.12
2023-03-16T15:59:44.012Z,7.09
2023-03-16T16:02:28.931Z,6.96
2023-03-16T16:04:55.306Z,6.91
2023-03-16T16:07:21.516Z,6.90
2023-03-16T16:09:47.884Z,6.81
2023-03-16T16:12:14.291Z,6.77
2023-03-16T16:14:40.504Z,6.68
2023-03-16T16:17:13.012Z,6.73
2023-03-16T16:19:39.272Z,6.69
2023-03-16T16:22:05.487Z,6.67
2023-03-16T16:24:31.710Z,6.68
2023-03-16T16:26:57.988Z,6.63
2023-03-16T16:29:24.878Z,6.60
2023-03-16T16:31:51.129Z,6.56
2023-03-16T16:34:17.996Z,6.49
2023-03-16T16:36:49.044Z,6.49
2023-03-16T16:39:15.251Z,6.39
2023-03-16T16:41:41.667Z,6.36
2023-03-16T16:44:36.881Z,6.41
2023-03-16T16:47:05.579Z,6.41
2023-03-16T16:49:31.780Z,6.34
2023-03-16T16:51:58.107Z,6.27
2023-03-16T16:54:24.871Z,6.38
2023-03-16T16:56:51.948Z,6.35
2023-03-16T16:59:42.771Z,6.30
2023-03-16T17:02:27.519Z,6.33
2023-03-16T17:04:53.790Z,6.30
2023-03-16T17:07:20.065Z,6.23
2023-03-16T17:09:46.265Z,6.34
2023-03-16T17:12:16.660Z,6.35
2023-03-16T17:14:42.870Z,6.37
2023-03-16T17:17:12.207Z,6.32
2023-03-16T17:19:38.443Z,6.25
2023-03-16T17:22:05.858Z,6.35
2023-03-16T17:24:32.110Z,6.27
2023-03-16T17:26:58.711Z,6.29
2023-03-16T17:29:25.899Z,6.31
2023-03-16T17:31:52.111Z,6.33
2023-03-16T17:34:19.353Z,6.37
2023-03-16T17:36:45.687Z,6.32
2023-03-16T17:39:21.923Z,6.26
2023-03-16T17:41:48.677Z,6.23
2023-03-16T17:44:14.912Z,6.20
2023-03-16T17:46:41.162Z,6.30
2023-03-16T17:49:11.721Z,6.25
2023-03-16T17:51:40.214Z,6.29
2023-03-16T17:54:06.804Z,6.20
2023-03-16T17:56:33.078Z,6.14
2023-03-16T17:58:59.333Z,6.19
2023-03-16T18:01:29.438Z,6.15
2023-03-16T18:03:56.461Z,6.35
2023-03-16T18:06:23.215Z,6.26
2023-03-16T18:08:49.506Z,6.26
2023-03-16T18:11:17.116Z,6.25
2023-03-16T18:13:43.315Z,6.20
2023-03-16T18:16:10.651Z,6.29
2023-03-16T18:18:37.214Z,6.08
2023-03-16T18:21:03.566Z,5.93
2023-03-16T18:23:30.665Z,5.96
2023-03-16T18:25:56.877Z,6.09
2023-03-16T18:28:23.110Z,6.13
2023-03-16T18:30:49.835Z,6.10
2023-03-16T18:33:39.308Z,6.11
2023-03-16T18:36:06.371Z,6.12
2023-03-16T18:38:33.391Z,6.10
2023-03-16T18:40:59.932Z,6.07
2023-03-16T18:43:27.324Z,6.13
2023-03-16T18:45:54.852Z,6.16
2023-03-16T18:48:29.067Z,6.15
2023-03-16T18:50:55.286Z,6.28
2023-03-16T18:53:21.485Z,6.28
2023-03-16T18:55:48.380Z,6.11
2023-03-16T18:58:15.489Z,6.09
2023-03-16T19:00:41.703Z,6.06
2023-03-16T19:03:09.482Z,6.15
2023-03-16T19:05:35.763Z,6.09
2023-03-16T19:08:01.989Z,6.02
2023-03-16T19:10:28.823Z,6.02
2023-03-16T19:12:55.039Z,6.13
2023-03-16T19:15:22.453Z,6.02
2023-03-16T19:17:49.020Z,6.10
2023-03-16T19:20:16.212Z,6.07
2023-03-16T19:22:43.035Z,6.04
2023-03-16T19:25:11.374Z,6.09
2023-03-16T19:27:37.574Z,6.01
2023-03-16T19:30:04.312Z,6.11
2023-03-16T19:32:30.533Z,6.06
2023-03-16T19:34:56.786Z,6.13
2023-03-16T19:37:22.988Z,6.12
2023-03-16T19:39:49.272Z,6.11
2023-03-16T19:42:26.740Z,6.07
2023-03-16T19:44:53.018Z,6.14
2023-03-16T19:47:24.355Z,6.10
2023-03-16T19:49:50.563Z,6.07
2023-03-16T19:52:16.755Z,6.02
2023-03-16T19:54:42.963Z,6.02
2023-03-16T19:57:12.032Z,6.11
2023-03-16T19:59:38.245Z,6.03
2023-03-16T20:02:14.022Z,6.03
2023-03-16T20:04:40.317Z,6.01
2023-03-16T20:07:06.982Z,5.96
2023-03-16T20:09:33.260Z,5.97
2023-03-16T20:11:59.462Z,5.94
2023-03-16T20:14:29.427Z,5.97
2023-03-16T20:16:55.741Z,5.83
2023-03-16T20:19:22.399Z,5.98
2023-03-16T20:21:48.717Z,5.88
2023-03-16T20:24:15.587Z,5.79
2023-03-16T20:26:41.887Z,5.89
2023-03-16T20:29:20.145Z,5.93
2023-03-16T20:31:46.384Z,5.92
2023-03-16T20:34:21.212Z,5.83
2023-03-16T20:36:47.452Z,5.75
2023-03-16T20:39:13.662Z,5.83
2023-03-16T20:41:39.871Z,5.91
2023-03-16T20:44:06.075Z,5.80
2023-03-16T20:46:32.429Z,5.88
2023-03-16T20:48:58.910Z,5.75
2023-03-16T20:51:25.120Z,5.69
2023-03-16T20:53:51.362Z,5.64
2023-03-16T20:56:21.234Z,5.79
2023-03-16T20:58:47.786Z,5.74
2023-03-16T21:01:14.770Z,5.70
2023-03-16T21:03:40.996Z,5.66
2023-03-16T21:06:09.698Z,5.72
2023-03-16T21:08:35.900Z,5.59
2023-03-16T21:11:02.121Z,5.66
2023-03-16T21:13:29.820Z,5.64
2023-03-16T21:15:56.190Z,5.56
2023-03-16T21:18:22.405Z,5.58
2023-03-16T21:20:49.074Z,5.63
2023-03-16T21:23:19.196Z,5.66
2023-03-16T21:25:46.814Z,5.69
2023-03-16T21:28:13.037Z,5.62
2023-03-16T21:30:43.199Z,5.73
2023-03-16T21:33:27.251Z,5.58
2023-03-16T21:35:53.515Z,5.69
2023-03-16T21:38:20.009Z,5.61
2023-03-16T21:40:46.359Z,5.59
2023-03-16T21:43:12.559Z,5.69
2023-03-16T21:45:39.088Z,5.58
2023-03-16T21:48:05.342Z,5.64
2023-03-16T21:50:32.510Z,5.68
2023-03-16T21:52:58.720Z,5.61
2023-03-16T21:55:25.722Z,5.53
2023-03-16T21:57:51.950Z,5.58
2023-03-16T22:00:18.259Z,5.64
2023-03-16T22:02:44.618Z,5.70
2023-03-16T22:05:18.539Z,5.61
2023-03-16T22:07:44.742Z,5.55
2023-03-16T22:10:14.612Z,5.49
2023-03-16T22:12:40.819Z,5.53
2023-03-16T22:15:07.287Z,5.58
2023-03-16T22:17:33.495Z,5.47
2023-03-16T22:19:59.697Z,5.53
2023-03-16T22:22:32.671Z,5.57
2023-03-16T22:24:58.876Z,5.60
2023-03-16T22:27:25.091Z,5.61
2023-03-16T22:29:51.320Z,5.43
2023-03-16T22:32:18.316Z,5.40
2023-03-16T22:34:46.018Z,5.42
2023-03-16T22:37:13.189Z,5.45
2023-03-16T22:39:39.393Z,5.39
2023-03-16T22:42:16.803Z,5.41
2023-03-16T22:44:43.014Z,5.47
2023-03-16T22:47:13.708Z,5.38
2023-03-16T22:49:39.922Z,5.42
2023-03-16T22:52:06.130Z,5.40
2023-03-16T22:54:32.338Z,5.51
2023-03-16T22:56:58.562Z,5.51
2023-03-16T22:59:24.776Z,5.52
2023-03-16T23:01:50.987Z,5.56
2023-03-16T23:04:17.898Z,5.51
2023-03-16T23:06:44.135Z,5.51
2023-03-16T23:09:13.741Z,5.49
2023-03-16T23:11:39.956Z,5.51
2023-03-16T23:14:11.389Z,5.54
2023-03-16T23:16:37.644Z,5.49
2023-03-16T23:19:18.747Z,5.48
2023-03-16T23:21:50.322Z,5.42
2023-03-16T23:24:16.515Z,5.43
2023-03-16T23:26:42.732Z,5.41
2023-03-16T23:29:09.350Z,5.41
2023-03-16T23:31:35.556Z,5.39
2023-03-16T23:34:01.780Z,5.45
2023-03-16T23:36:27.984Z,5.38
2023-03-16T23:38:54.207Z,5.39
2023-03-16T23:41:21.037Z,5.43
2023-03-16T23:43:47.254Z,5.38
2023-03-16T23:46:13.810Z,5.35
2023-03-16T23:48:40.512Z,5.40
2023-03-16T23:51:06.717Z,5.41
2023-03-16T23:53:32.945Z,5.38
2023-03-16T23:55:59.155Z,5.34
2023-03-16T23:58:25.371Z,5.16
